Latest Weather Observations for Gannett Cay

IDQ60801

Issued at 4:32 pm EST Saturday 27 August 2016 (issued every 30 minutes, with the page automatically refreshed every 10 minutes)

About weather observations | Map of weather stations | Latest weather observations for QLD | Other Formats
Station Details ID: 200831 Name: GANNET CAY Lat: -21.98 Lon: 152.47 Height: 2.3 m
Data from the previous 72 hours. | See also: Recent months for locations in Queensland
Date/Time
EST
Temp
°C
App
Temp
°C
Dew
Point
°C
Rel
Hum
%
Delta-T
°C
Wind Press
QNH
hPa
Press
MSL
hPa
Rain since
9am
mm
Dir  Spd
km/h
Gust
km/h
Spd
kts
Gust
kts
27/04:30pm 17.1 - - - - S 30 35 16 19 1018.6 - -
27/04:29pm 17.1 - - - - S 30 33 16 18 1018.6 1018.7 -
27/04:00pm 17.2 - - - - S 32 37 17 20 1018.4 - -
27/03:30pm 17.4 - - - - S 32 39 17 21 1018.4 - -
27/03:29pm 16.9 - - - - S 32 - 17 - - 1018.5 -
27/03:00pm 16.6 - - - - S 28 37 15 20 1018.5 - -
27/02:30pm 16.5 - - - - SSW 32 39 17 21 1018.6 - -
27/02:29pm 16.6 - - - - SSW 32 - 17 - - 1018.7 -
27/02:00pm 16.7 - - - - SSW 32 39 17 21 1018.7 - -
27/01:30pm 16.8 - - - - SSW 32 39 17 21 1019.1 - -
27/01:29pm 17.0 - - - - SSW 32 - 17 - - 1019.2 -
27/01:00pm 17.0 - - - - SSW 30 37 16 20 1019.2 - -
27/12:30pm 17.0 - - - - SSW 33 39 18 21 1019.4 - -
27/12:29pm 17.1 - - - - SSW 33 - 18 - - 1019.5 -
27/12:00pm 17.1 - - - - S 32 43 17 23 1019.5 - -
27/11:30am 17.2 - - - - SSW 32 37 17 20 1020.0 - -
27/11:29am 17.3 - - - - SSW 32 - 17 - - 1020.0 -
27/11:00am 17.4 - - - - S 33 41 18 22 1020.0 - -
27/10:30am 17.6 - - - - S 35 41 19 22 1020.3 - -
27/10:29am 17.9 - - - - S 35 - 19 - - 1020.4 -
27/10:00am 17.8 - - - - S 35 43 19 23 1020.5 - -
27/09:30am 18.0 - - - - S 35 43 19 23 1020.6 - -
27/09:29am 18.0 - - - - S 35 - 19 - - 1020.7 -
27/09:00am 18.3 - - - - S 32 41 17 22 1020.5 - -
27/08:30am 18.5 - - - - S 32 39 17 21 1020.4 - -
27/08:29am 18.5 - - - - S 30 - 16 - - 1020.5 -
27/08:00am 18.6 - - - - S 32 37 17 20 1020.2 - -
27/07:30am 18.4 - - - - S 32 39 17 21 1019.8 - -
27/07:29am 18.6 - - - - S 32 - 17 - - 1020.0 -
27/07:00am 18.4 - - - - S 35 44 19 24 1019.7 - -
27/06:30am 18.6 - - - - S 33 43 18 23 1019.4 - -
27/06:29am 18.5 - - - - S 35 - 19 - - 1019.5 -
27/06:00am 18.7 - - - - S 35 44 19 24 1019.0 - -
27/05:30am 18.8 - - - - S 35 43 19 23 1018.7 - -
27/05:29am 18.8 - - - - S 37 - 20 - - 1018.8 -
27/05:00am 18.9 - - - - S 33 41 18 22 1018.1 - -
27/04:30am 18.9 - - - - S 37 44 20 24 1017.5 - -
27/04:29am 18.9 - - - - S 37 - 20 - - 1017.6 -
27/04:00am 19.2 - - - - S 41 52 22 28 1017.0 - -
27/03:30am 19.6 - - - - S 33 39 18 21 1017.2 - -
27/03:29am 19.5 - - - - S 33 - 18 - - 1017.2 -
27/03:00am 19.7 - - - - S 35 43 19 23 1017.3 - -
27/02:30am 19.8 - - - - S 37 43 20 23 1017.2 - -
27/02:29am 19.7 - - - - S 35 - 19 - - 1017.3 -
27/02:00am 19.8 - - - - S 37 44 20 24 1017.3 - -
27/01:30am 19.7 - - - - S 33 43 18 23 1017.7 - -
27/01:29am 19.7 - - - - S 33 - 18 - - 1017.8 -
27/01:00am 19.9 - - - - S 35 43 19 23 1017.7 - -
27/12:30am 19.5 - - - - S 37 44 20 24 1017.8 - -
27/12:29am 19.5 - - - - S 37 - 20 - - 1017.9 -
27/12:00am 19.5 - - - - S 37 44 20 24 1018.0 - -
 
Date/Time
EST
Temp
°C
App
Temp
°C
Dew
Point
°C
Rel
Hum
%
Delta-T
°C
Wind Press
QNH
hPa
Press
MSL
hPa
Rain since
9am
mm
Dir  Spd
km/h
Gust
km/h
Spd
kts
Gust
kts
26/11:30pm 19.6 - - - - SSW 33 41 18 22 1018.2 - -
26/11:29pm 19.7 - - - - S 33 - 18 - - 1018.4 -
26/11:00pm 19.9 - - - - S 37 44 20 24 1018.0 - -
26/10:30pm 19.7 - - - - S 37 43 20 23 1018.1 - -
26/10:29pm 19.6 - - - - S 37 - 20 - - 1018.2 -
26/10:00pm 19.7 - - - - S 35 41 19 22 1017.9 - -
26/09:30pm 19.5 - - - - S 33 41 18 22 1017.6 - -
26/09:29pm 19.5 - - - - S 33 - 18 - - 1017.8 -
26/09:00pm 19.5 - - - - S 35 43 19 23 1017.7 - -
26/08:30pm 19.4 - - - - S 33 41 18 22 1017.6 - -
26/08:29pm 19.3 - - - - S 33 - 18 - - 1017.7 -
26/08:00pm 19.3 - - - - S 37 46 20 25 1017.2 - -
26/07:30pm 19.4 - - - - S 37 46 20 25 1016.7 - -
26/07:29pm 19.4 - - - - S 37 - 20 - - 1016.8 -
26/07:00pm 19.6 - - - - S 39 44 21 24 1016.1 - -
26/06:30pm 19.4 - - - - S 37 43 20 23 1015.9 - -
26/06:29pm 19.4 - - - - S 37 - 20 - - 1016.0 -
26/06:00pm 19.4 - - - - S 33 43 18 23 1015.7 - -
26/05:30pm 19.5 - - - - S 30 37 16 20 1015.3 - -
26/05:29pm 19.7 - - - - S 30 - 16 - - 1015.3 -
26/05:00pm 19.5 - - - - SSE 30 35 16 19 1014.9 - -
26/04:30pm 19.4 - - - - SSE 30 35 16 19 1014.6 - -
26/04:29pm 19.6 - - - - SSE 30 - 16 - - 1014.7 -
26/04:00pm 19.5 - - - - SSE 28 32 15 17 1014.3 - -
26/03:30pm 19.4 - - - - SSE 30 37 16 20 1013.4 - -
26/03:29pm 19.5 - - - - SSE 30 - 16 - - 1013.5 -
26/03:00pm 19.3 - - - - SE 30 37 16 20 1013.5 - -
26/02:30pm 19.4 - - - - SE 32 37 17 20 1013.3 - -
26/02:29pm 19.2 - - - - SE 32 - 17 - - 1013.4 -
26/02:00pm 19.1 - - - - SE 30 35 16 19 1013.4 - -
26/01:30pm 19.1 - - - - SE 35 41 19 22 1013.9 - -
26/01:29pm 19.1 - - - - SE 35 - 19 - - 1013.9 -
26/01:00pm 18.9 - - - - SE 37 43 20 23 1014.1 - -
26/12:30pm 18.9 - - - - SE 37 41 20 22 1014.1 - -
26/12:29pm 19.1 - - - - SE 35 - 19 - - 1014.3 -
26/12:00pm 19.1 - - - - SE 33 39 18 21 1015.1 - -
26/11:30am 19.0 - - - - SE 33 41 18 22 1015.0 - -
26/11:29am 19.1 - - - - SE 33 - 18 - - 1015.1 -
26/11:25am 19.1 - - - - SE 30 41 16 22 1015.0 - -
26/11:00am 18.6 - - - - E 19 22 10 12 1015.6 - -
26/10:30am 19.0 - - - - ENE 32 37 17 20 1016.0 - -
26/10:29am 19.0 - - - - ENE 32 - 17 - - 1016.1 -
26/10:00am 18.8 - - - - E 19 26 10 14 1016.0 - -
26/09:30am 18.8 - - - - E 19 24 10 13 1016.1 - -
26/09:29am 18.7 - - - - E 19 - 10 - - 1016.2 -
26/09:00am 18.6 - - - - E 15 19 8 10 1016.4 - -
26/08:30am 19.0 - - - - E 15 20 8 11 1016.3 - -
26/08:29am 19.0 - - - - E 17 - 9 - - 1016.4 -
26/08:00am 19.1 - - - - E 20 24 11 13 1015.7 - -
26/07:30am 19.1 - - - - E 20 24 11 13 1015.6 - -
26/07:29am 19.1 - - - - E 20 - 11 - - 1015.6 -
26/07:00am 19.0 - - - - E 19 22 10 12 1015.2 - -
26/06:30am 18.9 - - - - E 20 24 11 13 1014.6 - -
26/06:29am 18.8 - - - - E 20 - 11 - - 1014.7 -
26/06:00am 18.6 - - - - E 19 22 10 12 1015.2 - -
26/05:30am 18.7 - - - - ENE 20 24 11 13 1014.9 - -
26/05:29am 18.8 - - - - ENE 20 - 11 - - 1014.9 -
26/05:00am 19.1 - - - - NE 15 20 8 11 1014.0 - -
26/04:30am 18.9 - - - - ENE 9 13 5 7 1013.3 - -
26/04:29am 19.0 - - - - NE 9 - 5 - - 1013.5 -
26/04:00am 19.0 - - - - NNE 9 11 5 6 1013.8 - -
26/03:30am 19.3 - - - - NE 4 7 2 4 1013.6 - -
26/03:29am 19.3 - - - - NE 4 - 2 - - 1013.7 -
26/03:00am 19.3 - - - - ENE 9 11 5 6 1013.3 - -
26/02:30am 19.5 - - - - NE 7 11 4 6 1013.4 - -
26/02:29am 19.4 - - - - NE 7 - 4 - - 1013.6 -
26/02:00am 19.5 - - - - NNE 7 9 4 5 1013.9 - -
26/01:30am 19.6 - - - - NNE 9 13 5 7 1014.0 - -
26/01:29am 19.5 - - - - NNE 9 - 5 - - 1014.2 -
26/01:00am 19.7 - - - - N 11 15 6 8 1014.3 - -
26/12:30am 19.5 - - - - N 13 15 7 8 1014.4 - -
26/12:29am 19.5 - - - - N 13 - 7 - - 1014.6 -
26/12:00am 19.3 - - - - N 11 13 6 7 1014.8 - -
 
Date/Time
EST
Temp
°C
App
Temp
°C
Dew
Point
°C
Rel
Hum
%
Delta-T
°C
Wind Press
QNH
hPa
Press
MSL
hPa
Rain since
9am
mm
Dir  Spd
km/h
Gust
km/h
Spd
kts
Gust
kts
25/11:30pm 19.4 - - - - NNE 15 17 8 9 1014.8 - -
25/11:29pm 19.4 - - - - NNE 15 - 8 - - 1014.9 -
25/11:00pm 19.7 - - - - NNE 15 19 8 10 1014.9 - -
25/10:30pm 19.7 - - - - NNE 13 17 7 9 1015.0 - -
25/10:29pm 19.8 - - - - NNE 13 - 7 - - 1015.1 -
25/10:00pm 19.6 - - - - NE 11 13 6 7 1015.0 - -
25/09:30pm 19.3 - - - - ENE 11 13 6 7 1014.9 - -
25/09:29pm 19.3 - - - - ENE 11 - 6 - - 1014.9 -
25/09:00pm 19.6 - - - - NE 13 15 7 8 1015.2 - -
25/08:30pm 19.6 - - - - NE 15 19 8 10 1014.9 - -
25/08:29pm 19.4 - - - - NE 15 - 8 - - 1015.1 -
25/08:00pm 19.7 - - - - ENE 15 17 8 9 1014.8 - -
25/07:30pm 19.8 - - - - E 15 19 8 10 1014.8 - -
25/07:29pm 19.6 - - - - E 15 - 8 - - 1014.8 -
25/07:00pm 19.6 - - - - E 15 17 8 9 1014.4 - -
25/06:30pm 19.7 - - - - ESE 13 15 7 8 1014.2 - -
25/06:29pm 19.6 - - - - ESE 13 - 7 - - 1014.4 -
25/06:00pm 20.3 - - - - SSE 15 17 8 9 1013.7 - -
25/05:30pm 20.2 - - - - SSE 13 17 7 9 1013.3 - -
25/05:29pm 20.2 - - - - SSE 13 - 7 - - 1013.5 -
25/05:00pm 20.2 - - - - SE 13 17 7 9 1013.2 - -
25/04:30pm 19.8 - - - - SSE 19 20 10 11 1012.5 - -
25/04:29pm 19.9 - - - - SSE 19 - 10 - - 1012.5 -
25/04:00pm 19.6 - - - - S 19 22 10 12 1012.2 - -
25/03:30pm 19.3 - - - - SSE 13 17 7 9 1011.8 - -
25/03:29pm 19.4 - - - - SSE 13 - 7 - - 1011.9 -
25/03:00pm 19.3 - - - - S 15 17 8 9 1011.7 - -
25/02:30pm 19.3 - - - - S 17 22 9 12 1012.1 - -
25/02:29pm 19.4 - - - - S 17 - 9 - - 1012.1 -
25/02:00pm 19.3 - - - - SSE 13 19 7 10 1011.6 - -
25/01:30pm 19.1 - - - - SE 15 19 8 10 1011.6 - -
25/01:29pm 19.0 - - - - SE 15 - 8 - - 1011.6 -
25/01:00pm 18.7 - - - - SSE 13 15 7 8 1011.6 - -
25/12:30pm 18.3 - - - - S 13 19 7 10 1012.1 - -
25/12:29pm 18.5 - - - - S 13 - 7 - - 1012.2 -
25/12:00pm 18.6 - - - - SSW 17 22 9 12 1012.4 - -
25/11:30am 19.0 - - - - SSW 19 24 10 13 1013.1 - -
25/11:29am 19.0 - - - - SSW 17 - 9 - - 1013.2 -
25/11:00am 19.5 - - - - SSW 20 26 11 14 1012.8 - -
25/10:30am 19.8 - - - - SW 20 24 11 13 1013.5 - -
25/10:29am 19.9 - - - - SW 20 - 11 - - 1013.7 -
25/10:00am 20.3 - - - - WSW 17 20 9 11 1013.7 - -
25/09:30am 20.4 - - - - SW 22 28 12 15 1013.6 - -
25/09:29am 20.4 - - - - SW 22 - 12 - - 1013.7 -
25/09:00am 20.5 - - - - SSW 19 24 10 13 1014.0 - -
25/08:30am 20.2 - - - - SW 20 24 11 13 1014.1 - -
25/08:29am 20.2 - - - - SW 20 - 11 - - 1014.2 -
25/08:00am 20.4 - - - - SSW 20 24 11 13 1013.8 - -
25/07:30am 20.4 - - - - S 20 24 11 13 1013.3 - -
25/07:29am 20.5 - - - - S 20 - 11 - - 1013.4 -
25/07:00am 20.8 - - - - SSW 26 30 14 16 1013.2 - -
25/06:30am 21.1 - - - - S 28 35 15 19 1012.7 - -
25/06:29am 21.2 - - - - S 28 - 15 - - 1012.8 -
25/06:00am 21.0 - - - - S 19 24 10 13 1012.7 - -
25/05:30am 20.6 - - - - S 17 20 9 11 1012.0 - -
25/05:29am 20.5 - - - - S 17 - 9 - - 1012.1 -
25/05:00am 20.8 - - - - SSW 19 24 10 13 1012.0 - -
25/04:30am 20.4 - - - - SSW 26 30 14 16 1011.5 - -
25/04:29am 20.4 - - - - SSW 26 - 14 - - 1011.5 -
25/04:00am 20.2 - - - - SSW 24 30 13 16 1011.1 - -
25/03:30am 20.5 - - - - SW 30 32 16 17 1011.5 - -
25/03:29am 20.3 - - - - SW 30 - 16 - - 1011.7 -
25/03:00am 20.7 - - - - SSW 41 46 22 25 1011.4 - -
25/02:30am 21.0 - - - - SSW 37 43 20 23 1011.3 - -
25/02:29am 21.3 - - - - SSW 37 - 20 - - 1011.4 -
25/02:00am 21.4 - - - - S 33 39 18 21 1011.2 - -
25/01:30am 21.5 - - - - SSW 35 41 19 22 1011.5 - -
25/01:29am 21.4 - - - - SSW 35 - 19 - - 1011.6 -
25/01:24am 21.5 - - - - SSW 33 41 18 22 1011.5 - -
25/01:00am 21.5 - - - - S 19 20 10 11 1012.1 - -
25/12:30am 21.5 - - - - SSE 9 13 5 7 1012.2 - -
25/12:29am 21.4 - - - - SSE 11 - 6 - - 1012.2 -
25/12:00am 22.1 - - - - S 17 24 9 13 1012.2 - -
 
Date/Time
EST
Temp
°C
App
Temp
°C
Dew
Point
°C
Rel
Hum
%
Delta-T
°C
Wind Press
QNH
hPa
Press
MSL
hPa
Rain since
9am
mm
Dir  Spd
km/h
Gust
km/h
Spd
kts
Gust
kts
24/11:30pm 21.6 - - - - SSE 13 15 7 8 1012.0 - -
24/11:29pm 21.6 - - - - SSE 13 - 7 - - 1012.1 -
24/11:00pm 21.5 - - - - SSE 17 20 9 11 1011.8 - -
24/10:30pm 21.2 - - - - S 19 20 10 11 1011.7 - -
24/10:29pm 21.2 - - - - SSE 19 - 10 - - 1011.8 -
24/10:00pm 21.0 - - - - SSE 22 26 12 14 1011.7 - -
24/09:30pm 20.9 - - - - S 28 32 15 17 1011.7 - -
24/09:29pm 20.8 - - - - S 28 - 15 - - 1011.8 -
24/09:00pm 20.3 - - - - S 39 46 21 25 1011.8 - -
24/08:30pm 21.3 - - - - SSW 30 37 16 20 1011.6 - -
24/08:29pm 21.2 - - - - SSW 30 - 16 - - 1011.6 -
24/08:00pm 23.7 - - - - NNW 22 28 12 15 1010.9 - -
24/07:30pm 23.8 - - - - N 32 35 17 19 1010.3 - -
24/07:29pm 23.8 - - - - NNW 33 - 18 - - 1010.4 -
24/07:00pm 23.7 - - - - NNW 35 39 19 21 1010.1 - -
24/06:30pm 23.7 - - - - NNW 28 32 15 17 1010.2 - -
24/06:29pm 23.7 - - - - NNW 28 - 15 - - 1010.3 -
24/06:00pm 23.9 - - - - NNW 35 39 19 21 1009.6 - -
24/05:30pm 23.7 - - - - NNW 30 33 16 18 1009.3 - -
24/05:29pm 23.7 - - - - NNW 30 - 16 - - 1009.5 -
24/05:00pm 23.8 - - - - NNW 32 35 17 19 1009.1 - -

Other Formats:

Comma delimited format used in spreadsheet applications
http://www.bom.gov.au/fwo/IDQ60801/IDQ60801.94379.axf

JavaScript Object Notation format (JSON) in row-major order
http://www.bom.gov.au/fwo/IDQ60801/IDQ60801.94379.json